createdAt,value
2019-03-13T00:00:03.113Z,36.10
2019-03-13T00:00:14.846Z,36.00
2019-03-13T00:00:26.583Z,35.90
2019-03-13T00:00:38.324Z,36.00
2019-03-13T00:00:50.089Z,36.20
2019-03-13T00:01:01.828Z,36.10
2019-03-13T00:01:13.570Z,36.30
2019-03-13T00:01:25.305Z,36.30
2019-03-13T00:01:37.236Z,36.40
2019-03-13T00:01:48.975Z,36.40
2019-03-13T00:02:00.719Z,36.40
2019-03-13T00:02:12.452Z,36.30
2019-03-13T00:02:24.188Z,36.30
2019-03-13T00:02:35.926Z,36.30
2019-03-13T00:02:47.720Z,36.30
2019-03-13T00:02:59.471Z,36.50
2019-03-13T00:03:11.207Z,36.50
2019-03-13T00:03:22.947Z,36.50
2019-03-13T00:03:34.723Z,36.40
2019-03-13T00:03:46.463Z,36.40
2019-03-13T00:03:58.202Z,36.40
2019-03-13T00:04:09.944Z,36.60
2019-03-13T00:04:21.679Z,36.40
2019-03-13T00:04:33.422Z,36.40
2019-03-13T00:04:45.243Z,36.40
2019-03-13T00:04:59.326Z,37.00
2019-03-13T00:05:11.064Z,36.50
2019-03-13T00:05:22.823Z,36.50
2019-03-13T00:05:34.564Z,36.50
2019-03-13T00:05:46.328Z,36.50
2019-03-13T00:05:58.064Z,36.70
2019-03-13T00:06:09.802Z,36.30
2019-03-13T00:06:21.540Z,36.40
2019-03-13T00:06:33.327Z,36.30
2019-03-13T00:06:45.158Z,36.30
2019-03-13T00:06:56.892Z,36.20
2019-03-13T00:07:08.630Z,36.80
2019-03-13T00:07:20.368Z,36.10
2019-03-13T00:07:32.106Z,36.20
2019-03-13T00:07:43.952Z,36.20
2019-03-13T00:07:55.735Z,36.20
2019-03-13T00:08:07.476Z,36.30
2019-03-13T00:08:19.214Z,36.20
2019-03-13T00:08:30.951Z,36.20
2019-03-13T00:08:42.701Z,36.20
2019-03-13T00:08:54.430Z,36.30
2019-03-13T00:09:06.674Z,36.20
2019-03-13T00:09:18.424Z,36.20
2019-03-13T00:09:30.226Z,36.30
2019-03-13T00:09:41.963Z,36.30
2019-03-13T00:09:53.728Z,36.30
2019-03-13T00:10:05.481Z,36.30
2019-03-13T00:10:17.222Z,36.20
2019-03-13T00:10:32.280Z,36.30
2019-03-13T00:10:40.703Z,36.10
2019-03-13T00:10:52.442Z,36.20
2019-03-13T00:11:04.183Z,36.30
2019-03-13T00:11:15.924Z,36.30
2019-03-13T00:11:27.663Z,36.30
2019-03-13T00:11:39.436Z,36.30
2019-03-13T00:11:51.224Z,36.30
2019-03-13T00:12:03.108Z,36.30
2019-03-13T00:12:14.992Z,36.30
2019-03-13T00:12:26.756Z,36.30
2019-03-13T00:12:38.465Z,36.20
2019-03-13T00:12:50.203Z,36.10
2019-03-13T00:13:01.969Z,36.10
2019-03-13T00:13:13.872Z,36.20
2019-03-13T00:13:25.608Z,36.20
2019-03-13T00:13:37.526Z,36.20
2019-03-13T00:13:49.263Z,36.10
2019-03-13T00:14:01.000Z,36.20
2019-03-13T00:14:12.738Z,36.10
2019-03-13T00:14:24.527Z,36.10
2019-03-13T00:14:36.265Z,36.20
2019-03-13T00:14:48.003Z,36.30
2019-03-13T00:14:59.742Z,36.30
2019-03-13T00:15:11.481Z,36.30
2019-03-13T00:15:23.234Z,36.20
2019-03-13T00:15:34.971Z,36.10
2019-03-13T00:15:49.626Z,36.10
2019-03-13T00:15:58.448Z,36.10
2019-03-13T00:16:10.184Z,36.20
2019-03-13T00:16:21.922Z,36.30
2019-03-13T00:16:33.660Z,36.30
2019-03-13T00:16:45.401Z,36.30
2019-03-13T00:16:57.136Z,36.40
2019-03-13T00:17:08.873Z,36.30
2019-03-13T00:17:20.611Z,36.30
2019-03-13T00:17:32.351Z,36.30
2019-03-13T00:17:44.311Z,36.30
2019-03-13T00:17:56.055Z,36.20
2019-03-13T00:18:07.863Z,36.40
2019-03-13T00:18:19.625Z,36.10
2019-03-13T00:18:31.363Z,36.20
2019-03-13T00:18:43.122Z,36.20
2019-03-13T00:18:54.861Z,36.20
2019-03-13T00:19:06.605Z,36.20
2019-03-13T00:19:18.340Z,36.00
2019-03-13T00:19:30.078Z,36.20
2019-03-13T00:19:41.816Z,36.30
2019-03-13T00:19:53.637Z,36.30
2019-03-13T00:20:05.384Z,36.20
2019-03-13T00:20:17.127Z,36.10
2019-03-13T00:20:28.870Z,36.70
2019-03-13T00:20:40.616Z,36.10
2019-03-13T00:20:52.347Z,35.90
2019-03-13T00:21:04.222Z,36.10
2019-03-13T00:21:16.077Z,36.20
2019-03-13T00:21:27.815Z,36.30
2019-03-13T00:21:39.553Z,36.30
2019-03-13T00:21:51.293Z,36.40
2019-03-13T00:22:03.040Z,36.50
2019-03-13T00:22:14.781Z,36.50
2019-03-13T00:22:26.545Z,36.50
2019-03-13T00:22:38.403Z,36.60
2019-03-13T00:22:50.139Z,36.60
2019-03-13T00:23:01.876Z,36.60
2019-03-13T00:23:13.633Z,36.60
2019-03-13T00:23:25.371Z,36.60
2019-03-13T00:23:37.110Z,36.60
2019-03-13T00:23:48.846Z,36.60
2019-03-13T00:24:00.585Z,36.60
2019-03-13T00:24:12.334Z,36.50
2019-03-13T00:24:24.121Z,36.50
2019-03-13T00:24:35.860Z,36.60
2019-03-13T00:24:47.602Z,36.60
2019-03-13T00:24:59.339Z,36.60
2019-03-13T00:25:11.076Z,36.60
2019-03-13T00:25:22.824Z,36.60
2019-03-13T00:25:34.721Z,36.60
2019-03-13T00:25:46.459Z,36.70
2019-03-13T00:25:58.198Z,36.70
2019-03-13T00:26:09.935Z,36.80
2019-03-13T00:26:21.726Z,36.80
2019-03-13T00:26:33.461Z,36.80
2019-03-13T00:26:45.199Z,36.80
2019-03-13T00:26:56.937Z,36.80
2019-03-13T00:27:08.726Z,36.80
2019-03-13T00:27:20.464Z,36.80
2019-03-13T00:27:32.220Z,36.80
2019-03-13T00:27:43.958Z,36.80
2019-03-13T00:27:55.695Z,36.80
2019-03-13T00:28:07.434Z,36.90
2019-03-13T00:28:19.187Z,36.90
2019-03-13T00:28:30.932Z,37.00
2019-03-13T00:28:42.723Z,36.90
2019-03-13T00:28:54.631Z,36.90
2019-03-13T00:29:06.423Z,36.90
2019-03-13T00:29:18.288Z,37.00
2019-03-13T00:29:30.020Z,37.00
2019-03-13T00:29:41.937Z,37.00
2019-03-13T00:29:56.009Z,37.00
2019-03-13T00:30:07.749Z,37.00
2019-03-13T00:30:19.491Z,36.90
2019-03-13T00:30:31.229Z,37.00
2019-03-13T00:30:43.022Z,36.90
2019-03-13T00:30:54.843Z,37.00
2019-03-13T00:31:06.582Z,37.00
2019-03-13T00:31:18.320Z,37.00
2019-03-13T00:31:30.062Z,37.00
2019-03-13T00:31:42.156Z,37.00
2019-03-13T00:31:59.418Z,37.00
2019-03-13T00:32:08.064Z,37.00
2019-03-13T00:32:19.831Z,37.00
2019-03-13T00:32:31.562Z,37.10
2019-03-13T00:32:43.303Z,37.00
2019-03-13T00:32:55.166Z,36.90
2019-03-13T00:33:06.905Z,37.00
2019-03-13T00:33:18.656Z,37.60
2019-03-13T00:33:30.778Z,37.00
2019-03-13T00:33:42.558Z,36.90
2019-03-13T00:33:54.312Z,36.90
2019-03-13T00:34:06.233Z,36.90
2019-03-13T00:34:17.971Z,36.90
2019-03-13T00:34:29.883Z,36.90
2019-03-13T00:34:41.624Z,36.90
2019-03-13T00:34:53.362Z,36.90
2019-03-13T00:35:05.422Z,36.90
2019-03-13T00:35:17.160Z,36.90
2019-03-13T00:35:28.898Z,36.90
2019-03-13T00:35:40.635Z,36.90
2019-03-13T00:35:52.372Z,36.90
2019-03-13T00:36:05.319Z,36.80
2019-03-13T00:36:17.315Z,36.80
2019-03-13T00:36:29.042Z,36.80
2019-03-13T00:36:40.783Z,36.90
2019-03-13T00:36:52.533Z,36.80
2019-03-13T00:37:04.331Z,36.80
2019-03-13T00:37:16.180Z,36.70
2019-03-13T00:37:27.918Z,36.80
2019-03-13T00:37:39.734Z,36.70
2019-03-13T00:37:51.470Z,36.70
2019-03-13T00:38:03.214Z,36.70
2019-03-13T00:38:15.079Z,36.70
2019-03-13T00:38:26.822Z,36.70
2019-03-13T00:38:38.558Z,36.90
2019-03-13T00:38:50.357Z,36.80
2019-03-13T00:39:03.094Z,36.80
2019-03-13T00:39:14.972Z,36.80
2019-03-13T00:39:26.713Z,37.30
2019-03-13T00:39:38.445Z,36.70
2019-03-13T00:39:50.184Z,36.70
2019-03-13T00:40:02.071Z,36.70
2019-03-13T00:40:13.830Z,36.60
2019-03-13T00:40:25.631Z,36.60
2019-03-13T00:40:37.417Z,36.60
2019-03-13T00:40:49.281Z,37.40
2019-03-13T00:41:01.023Z,36.90
2019-03-13T00:41:12.757Z,36.80
2019-03-13T00:41:24.815Z,36.80
2019-03-13T00:41:36.555Z,36.80
2019-03-13T00:41:48.322Z,36.80
2019-03-13T00:42:00.448Z,36.80
2019-03-13T00:42:12.222Z,36.80
2019-03-13T00:42:24.027Z,36.80
2019-03-13T00:42:35.820Z,37.40
2019-03-13T00:42:47.572Z,36.90
2019-03-13T00:42:59.325Z,36.90
2019-03-13T00:43:11.340Z,36.50
2019-03-13T00:43:23.160Z,36.90
2019-03-13T00:43:34.898Z,36.90
2019-03-13T00:43:46.634Z,36.90
2019-03-13T00:43:58.419Z,37.00
2019-03-13T00:44:10.294Z,37.00
2019-03-13T00:44:22.033Z,37.80
2019-03-13T00:44:33.772Z,37.20
2019-03-13T00:44:45.511Z,37.10
2019-03-13T00:44:57.248Z,37.20
2019-03-13T00:45:08.986Z,37.10
2019-03-13T00:45:20.724Z,37.20
2019-03-13T00:45:32.464Z,37.20
2019-03-13T00:45:44.199Z,37.10
2019-03-13T00:45:55.946Z,37.10
2019-03-13T00:46:07.724Z,37.10
2019-03-13T00:46:19.510Z,37.00
2019-03-13T00:46:31.203Z,37.00
2019-03-13T00:46:43.079Z,37.10
2019-03-13T00:46:54.822Z,37.20
2019-03-13T00:47:06.559Z,37.20
2019-03-13T00:47:18.325Z,37.20
2019-03-13T00:47:30.063Z,37.30
2019-03-13T00:47:41.823Z,37.30
2019-03-13T00:47:53.735Z,37.20
2019-03-13T00:48:07.828Z,37.20
2019-03-13T00:48:19.566Z,37.20
2019-03-13T00:48:31.318Z,37.20
2019-03-13T00:48:43.056Z,37.30
2019-03-13T00:48:54.792Z,37.30
2019-03-13T00:49:06.534Z,37.30
2019-03-13T00:49:18.319Z,37.30
2019-03-13T00:49:30.059Z,37.30
2019-03-13T00:49:41.797Z,37.10
2019-03-13T00:49:53.538Z,37.30
2019-03-13T00:50:05.276Z,37.30
2019-03-13T00:50:17.023Z,37.30
2019-03-13T00:50:28.867Z,37.30
2019-03-13T00:50:43.314Z,37.40
2019-03-13T00:50:55.043Z,37.30
2019-03-13T00:51:06.825Z,37.30
2019-03-13T00:51:18.565Z,37.20
2019-03-13T00:51:30.331Z,37.20
2019-03-13T00:51:44.425Z,37.20
2019-03-13T00:51:56.163Z,37.20
2019-03-13T00:52:07.949Z,37.10
2019-03-13T00:52:19.690Z,37.00
2019-03-13T00:52:31.434Z,36.90
2019-03-13T00:52:43.236Z,36.90
2019-03-13T00:52:54.960Z,37.00
2019-03-13T00:53:06.702Z,37.00
2019-03-13T00:53:18.438Z,37.00
2019-03-13T00:53:30.366Z,37.00
2019-03-13T00:53:42.122Z,37.00
2019-03-13T00:53:53.863Z,37.10
2019-03-13T00:54:05.624Z,37.10
2019-03-13T00:54:17.364Z,37.20
2019-03-13T00:54:29.100Z,37.90
2019-03-13T00:54:40.840Z,37.10
2019-03-13T00:54:52.580Z,37.10
2019-03-13T00:55:04.322Z,37.10
2019-03-13T00:55:16.063Z,37.10
2019-03-13T00:55:27.805Z,37.20
2019-03-13T00:55:39.539Z,37.00
2019-03-13T00:55:51.275Z,37.10
2019-03-13T00:56:03.027Z,37.00
2019-03-13T00:56:14.764Z,37.00
2019-03-13T00:56:26.496Z,37.10
2019-03-13T00:56:38.435Z,37.00
2019-03-13T00:56:52.512Z,37.00
2019-03-13T00:57:04.251Z,37.00
2019-03-13T00:57:18.325Z,36.90
2019-03-13T00:57:30.064Z,36.80
2019-03-13T00:57:41.809Z,36.90
2019-03-13T00:57:53.549Z,36.90
2019-03-13T00:58:05.287Z,36.90
2019-03-13T00:58:18.867Z,37.00
2019-03-13T00:58:28.928Z,37.00
2019-03-13T00:58:40.688Z,37.00
2019-03-13T00:58:52.424Z,37.00
2019-03-13T00:59:04.164Z,37.00
2019-03-13T00:59:15.904Z,37.00
2019-03-13T00:59:27.642Z,37.10
2019-03-13T00:59:39.425Z,37.00
2019-03-13T00:59:51.163Z,37.00
2019-03-13T01:00:02.939Z,37.10
2019-03-13T01:00:14.693Z,37.10
2019-03-13T01:00:26.434Z,37.10
2019-03-13T01:00:38.173Z,37.00
2019-03-13T01:00:50.546Z,37.00
2019-03-13T01:01:02.283Z,37.10
2019-03-13T01:01:14.024Z,37.00
2019-03-13T01:01:25.765Z,37.00
2019-03-13T01:01:37.505Z,37.00
2019-03-13T01:01:49.247Z,37.00
2019-03-13T01:02:00.985Z,37.00
2019-03-13T01:02:12.726Z,37.00
2019-03-13T01:02:24.462Z,37.00
2019-03-13T01:02:36.200Z,37.00
2019-03-13T01:02:47.938Z,37.10
2019-03-13T01:02:59.677Z,37.00
2019-03-13T01:03:11.415Z,37.00
2019-03-13T01:03:23.154Z,37.00
2019-03-13T01:03:34.956Z,37.00
2019-03-13T01:03:46.709Z,37.00
2019-03-13T01:03:58.566Z,37.00
2019-03-13T01:04:10.330Z,37.00
2019-03-13T01:04:22.129Z,37.10
2019-03-13T01:04:33.978Z,37.00
2019-03-13T01:04:45.714Z,37.00
2019-03-13T01:04:57.454Z,36.90
2019-03-13T01:05:09.223Z,36.90
2019-03-13T01:05:23.324Z,36.90
2019-03-13T01:05:35.063Z,36.80
2019-03-13T01:05:46.822Z,36.90
2019-03-13T01:05:58.668Z,36.90
2019-03-13T01:06:10.409Z,36.90
2019-03-13T01:06:22.322Z,37.10
2019-03-13T01:06:34.059Z,37.00
2019-03-13T01:06:45.797Z,37.00
2019-03-13T01:06:57.534Z,37.00
2019-03-13T01:07:09.272Z,37.00
2019-03-13T01:07:21.019Z,37.30
2019-03-13T01:07:37.593Z,37.00
2019-03-13T01:07:51.826Z,37.00
2019-03-13T01:08:03.698Z,37.00
2019-03-13T01:08:15.440Z,37.00
2019-03-13T01:08:27.203Z,36.90
2019-03-13T01:08:38.946Z,37.00
2019-03-13T01:08:50.682Z,36.90
2019-03-13T01:09:02.421Z,37.00
2019-03-13T01:09:14.225Z,37.00
2019-03-13T01:09:25.965Z,37.00
2019-03-13T01:09:37.750Z,37.00
2019-03-13T01:09:49.891Z,37.60
2019-03-13T01:10:01.630Z,37.00
2019-03-13T01:10:13.387Z,37.10
2019-03-13T01:10:25.121Z,37.00
2019-03-13T01:10:36.862Z,37.00
2019-03-13T01:10:48.601Z,37.00
2019-03-13T01:11:00.346Z,37.00
2019-03-13T01:11:12.083Z,37.00
2019-03-13T01:11:27.007Z,36.90
2019-03-13T01:11:35.573Z,36.80
2019-03-13T01:11:47.295Z,36.90
2019-03-13T01:11:59.034Z,36.90
2019-03-13T01:12:13.122Z,37.10
2019-03-13T01:12:24.862Z,37.00
2019-03-13T01:12:36.600Z,37.00
2019-03-13T01:12:48.338Z,37.00
2019-03-13T01:13:00.089Z,37.00
2019-03-13T01:13:11.828Z,37.00
2019-03-13T01:13:25.920Z,37.10
2019-03-13T01:13:37.835Z,36.60
2019-03-13T01:13:49.588Z,36.60
2019-03-13T01:14:01.341Z,36.70
2019-03-13T01:14:13.121Z,36.60
2019-03-13T01:14:24.912Z,36.70
2019-03-13T01:14:36.620Z,36.80
2019-03-13T01:14:50.695Z,36.80
2019-03-13T01:15:02.434Z,36.80
2019-03-13T01:15:16.509Z,36.80
2019-03-13T01:15:28.242Z,36.80
2019-03-13T01:15:39.981Z,36.80
2019-03-13T01:15:51.726Z,36.80
2019-03-13T01:16:03.477Z,36.80
2019-03-13T01:16:15.222Z,36.80
2019-03-13T01:16:26.963Z,36.80
2019-03-13T01:16:38.725Z,36.80
2019-03-13T01:16:50.490Z,36.80
2019-03-13T01:17:02.231Z,37.40
2019-03-13T01:17:14.034Z,36.70
2019-03-13T01:17:25.783Z,36.70
2019-03-13T01:17:39.030Z,36.60
2019-03-13T01:17:49.438Z,36.60
2019-03-13T01:18:01.178Z,36.50
2019-03-13T01:18:12.924Z,36.50
2019-03-13T01:18:24.670Z,36.30
2019-03-13T01:18:36.401Z,36.20
2019-03-13T01:18:48.449Z,36.10
2019-03-13T01:19:00.188Z,36.10
2019-03-13T01:19:11.926Z,36.10
2019-03-13T01:19:24.161Z,36.20
2019-03-13T01:19:35.893Z,36.10
2019-03-13T01:19:47.633Z,36.50
2019-03-13T01:19:59.419Z,36.30
2019-03-13T01:20:11.168Z,36.30
2019-03-13T01:20:22.922Z,36.40
2019-03-13T01:20:34.739Z,36.40
2019-03-13T01:20:46.476Z,36.40
2019-03-13T01:20:58.217Z,36.40
2019-03-13T01:21:10.043Z,36.50
2019-03-13T01:21:21.694Z,36.50
2019-03-13T01:21:33.435Z,36.40
2019-03-13T01:21:45.572Z,36.40
2019-03-13T01:21:57.312Z,36.40
2019-03-13T01:22:09.095Z,36.50
2019-03-13T01:22:20.838Z,36.50
2019-03-13T01:22:32.621Z,37.00
2019-03-13T01:22:44.358Z,36.30
2019-03-13T01:22:56.180Z,36.40
2019-03-13T01:23:07.837Z,36.50
2019-03-13T01:23:19.572Z,36.50
2019-03-13T01:23:31.310Z,36.50
2019-03-13T01:23:43.541Z,36.50
2019-03-13T01:23:55.423Z,36.40
2019-03-13T01:24:07.229Z,36.30
2019-03-13T01:24:18.965Z,36.10
2019-03-13T01:24:30.705Z,35.90
2019-03-13T01:24:42.626Z,35.80
2019-03-13T01:24:54.371Z,35.70
2019-03-13T01:25:06.108Z,35.90
2019-03-13T01:25:17.853Z,35.60
2019-03-13T01:25:29.588Z,35.70
2019-03-13T01:25:41.326Z,35.60
2019-03-13T01:25:53.067Z,35.70
2019-03-13T01:26:05.266Z,35.80
2019-03-13T01:26:17.028Z,35.80
2019-03-13T01:26:28.767Z,35.90
2019-03-13T01:26:40.506Z,35.90
2019-03-13T01:26:52.243Z,35.90
2019-03-13T01:27:04.022Z,36.00
2019-03-13T01:27:15.916Z,36.00
2019-03-13T01:27:27.652Z,35.90
2019-03-13T01:27:39.426Z,35.90
2019-03-13T01:27:51.167Z,35.80
2019-03-13T01:28:02.926Z,35.80
2019-03-13T01:28:14.666Z,35.70
2019-03-13T01:28:26.438Z,35.70
2019-03-13T01:28:38.243Z,35.70
2019-03-13T01:28:49.927Z,35.70
2019-03-13T01:29:01.730Z,35.70
2019-03-13T01:29:13.523Z,35.90
2019-03-13T01:29:25.353Z,35.60
2019-03-13T01:29:39.426Z,36.10
2019-03-13T01:29:51.164Z,35.50
2019-03-13T01:30:03.552Z,35.50
2019-03-13T01:30:15.320Z,35.50
2019-03-13T01:30:27.058Z,35.60
2019-03-13T01:30:38.827Z,35.40
2019-03-13T01:30:50.565Z,35.40
2019-03-13T01:31:02.376Z,35.30
2019-03-13T01:31:14.051Z,35.20
2019-03-13T01:31:25.790Z,35.20
2019-03-13T01:31:39.861Z,35.20
2019-03-13T01:31:51.601Z,35.10
2019-03-13T01:32:03.425Z,35.10
2019-03-13T01:32:15.164Z,35.20
2019-03-13T01:32:26.921Z,35.30
2019-03-13T01:32:40.995Z,35.50
2019-03-13T01:32:52.736Z,35.40
2019-03-13T01:33:04.476Z,35.40
2019-03-13T01:33:16.213Z,35.50
2019-03-13T01:33:28.041Z,35.50
2019-03-13T01:33:39.782Z,35.50
2019-03-13T01:33:51.560Z,36.30
2019-03-13T01:34:03.299Z,35.60
2019-03-13T01:34:15.036Z,35.60
2019-03-13T01:34:26.777Z,35.60
2019-03-13T01:34:38.527Z,35.60
2019-03-13T01:34:50.373Z,35.50
2019-03-13T01:35:02.108Z,35.60
2019-03-13T01:35:13.845Z,35.60
2019-03-13T01:35:25.582Z,35.60
2019-03-13T01:35:37.328Z,35.70
2019-03-13T01:35:49.063Z,35.70
2019-03-13T01:36:03.279Z,35.90
2019-03-13T01:36:15.021Z,35.80
2019-03-13T01:36:26.761Z,35.70
2019-03-13T01:36:38.530Z,35.70
2019-03-13T01:36:50.388Z,35.70
2019-03-13T01:37:02.126Z,35.80
2019-03-13T01:37:13.939Z,35.80
2019-03-13T01:37:25.679Z,35.70
2019-03-13T01:37:37.419Z,35.70
2019-03-13T01:37:49.166Z,35.80
2019-03-13T01:38:00.897Z,35.90
2019-03-13T01:38:12.664Z,35.90
2019-03-13T01:38:24.394Z,35.90
2019-03-13T01:38:36.132Z,36.00
2019-03-13T01:38:48.049Z,36.10
2019-03-13T01:38:59.798Z,36.10
2019-03-13T01:39:11.701Z,36.10
2019-03-13T01:39:23.444Z,36.30
2019-03-13T01:39:35.179Z,36.20
2019-03-13T01:39:46.935Z,36.20
2019-03-13T01:39:58.729Z,36.20
2019-03-13T01:40:10.992Z,36.20
2019-03-13T01:40:22.730Z,36.10
2019-03-13T01:40:34.522Z,36.10
2019-03-13T01:40:46.264Z,36.00
2019-03-13T01:40:58.002Z,35.90
2019-03-13T01:41:09.739Z,35.90
2019-03-13T01:41:21.478Z,36.10
2019-03-13T01:41:33.222Z,35.80
2019-03-13T01:41:47.293Z,35.80
2019-03-13T01:41:59.332Z,35.70
2019-03-13T01:42:11.070Z,35.70
2019-03-13T01:42:22.808Z,35.70
2019-03-13T01:42:34.652Z,35.70
2019-03-13T01:42:46.391Z,35.90
2019-03-13T01:42:58.135Z,36.00
2019-03-13T01:43:09.921Z,36.00
2019-03-13T01:43:21.663Z,36.00
2019-03-13T01:43:33.402Z,36.00
2019-03-13T01:43:46.240Z,36.00
2019-03-13T01:43:57.995Z,36.00
2019-03-13T01:44:09.738Z,36.10
2019-03-13T01:44:21.526Z,36.00
2019-03-13T01:44:33.269Z,36.10
2019-03-13T01:44:45.006Z,36.10
2019-03-13T01:44:56.890Z,36.00
2019-03-13T01:45:08.633Z,36.00
2019-03-13T01:45:20.373Z,36.20
2019-03-13T01:45:32.110Z,35.90
2019-03-13T01:45:43.848Z,35.90
2019-03-13T01:45:55.614Z,36.00
2019-03-13T01:46:07.365Z,36.10
2019-03-13T01:46:21.427Z,36.30
2019-03-13T01:46:33.246Z,36.30
2019-03-13T01:46:45.024Z,36.30
2019-03-13T01:46:56.765Z,36.30
2019-03-13T01:47:08.525Z,36.30
2019-03-13T01:47:20.262Z,36.30
2019-03-13T01:47:34.335Z,36.50
2019-03-13T01:47:46.071Z,36.30
2019-03-13T01:48:00.143Z,36.30
2019-03-13T01:48:11.963Z,36.30
2019-03-13T01:48:23.849Z,36.30
2019-03-13T01:48:35.635Z,36.30
2019-03-13T01:48:49.713Z,36.40
2019-03-13T01:49:01.663Z,36.30
2019-03-13T01:49:13.398Z,36.30
2019-03-13T01:49:25.141Z,36.30
2019-03-13T01:49:36.922Z,36.30
2019-03-13T01:49:48.661Z,36.30
2019-03-13T01:50:00.480Z,36.30
2019-03-13T01:50:12.161Z,36.30
2019-03-13T01:50:23.922Z,36.30
2019-03-13T01:50:35.738Z,36.40
2019-03-13T01:50:47.477Z,36.40
2019-03-13T01:50:59.215Z,36.40
2019-03-13T01:51:10.954Z,36.40
2019-03-13T01:51:22.694Z,36.40
2019-03-13T01:51:34.436Z,36.40
2019-03-13T01:51:46.222Z,36.40
2019-03-13T01:51:58.067Z,36.50
2019-03-13T01:52:12.142Z,36.50
2019-03-13T01:52:23.882Z,36.50
2019-03-13T01:52:35.622Z,36.40
2019-03-13T01:52:47.531Z,36.50
2019-03-13T01:52:59.269Z,36.40
2019-03-13T01:53:11.006Z,36.40
2019-03-13T01:53:22.745Z,36.50
2019-03-13T01:53:34.485Z,36.50
2019-03-13T01:53:46.224Z,36.50
2019-03-13T01:53:57.971Z,36.50
2019-03-13T01:54:09.713Z,36.50
2019-03-13T01:54:21.633Z,37.10
2019-03-13T01:54:33.369Z,36.50
2019-03-13T01:54:45.110Z,36.50
2019-03-13T01:54:56.850Z,36.40
2019-03-13T01:55:08.586Z,36.40
2019-03-13T01:55:20.326Z,36.40
2019-03-13T01:55:32.188Z,36.50
2019-03-13T01:55:43.930Z,36.60
2019-03-13T01:55:55.670Z,36.50
2019-03-13T01:56:07.422Z,36.50
2019-03-13T01:56:19.310Z,36.50
2019-03-13T01:56:31.028Z,36.60
2019-03-13T01:56:42.827Z,36.50
2019-03-13T01:56:54.572Z,36.40
2019-03-13T01:57:06.304Z,36.30
2019-03-13T01:57:18.054Z,36.30
2019-03-13T01:57:29.824Z,36.40
2019-03-13T01:57:41.563Z,36.40
2019-03-13T01:57:53.328Z,36.50
2019-03-13T01:58:05.215Z,36.50
2019-03-13T01:58:16.915Z,36.50
2019-03-13T01:58:28.653Z,37.20
2019-03-13T01:58:40.393Z,36.40
2019-03-13T01:58:52.131Z,36.40
2019-03-13T01:59:03.884Z,36.30
2019-03-13T01:59:15.642Z,36.40
2019-03-13T01:59:27.380Z,36.40
2019-03-13T01:59:39.120Z,36.50
2019-03-13T01:59:50.864Z,36.50
2019-03-13T02:00:02.601Z,36.50
2019-03-13T02:00:14.341Z,36.30
2019-03-13T02:00:26.083Z,36.50
2019-03-13T02:00:37.827Z,36.50
2019-03-13T02:00:49.569Z,37.10
2019-03-13T02:01:01.307Z,36.60
2019-03-13T02:01:13.046Z,36.60
2019-03-13T02:01:24.783Z,36.70
2019-03-13T02:01:36.527Z,36.70
2019-03-13T02:01:48.263Z,36.60
2019-03-13T02:02:00.023Z,36.70
2019-03-13T02:02:11.965Z,36.70
2019-03-13T02:02:23.720Z,36.70
2019-03-13T02:02:35.621Z,36.80
2019-03-13T02:02:47.423Z,36.80
2019-03-13T02:02:59.274Z,36.90
2019-03-13T02:03:11.013Z,36.80
2019-03-13T02:03:22.792Z,36.90
2019-03-13T02:03:34.528Z,36.80
2019-03-13T02:03:46.376Z,36.80
2019-03-13T02:03:58.346Z,36.80
2019-03-13T02:04:10.441Z,36.90
2019-03-13T02:04:22.177Z,36.90
2019-03-13T02:04:33.925Z,37.00
2019-03-13T02:04:45.973Z,36.90
2019-03-13T02:04:57.716Z,36.90
2019-03-13T02:05:09.451Z,36.90
2019-03-13T02:05:21.189Z,36.90
2019-03-13T02:05:32.926Z,36.90
2019-03-13T02:05:44.724Z,36.90
2019-03-13T02:05:56.464Z,36.70
2019-03-13T02:06:08.201Z,36.70
2019-03-13T02:06:20.079Z,36.70
2019-03-13T02:06:31.817Z,36.80
2019-03-13T02:06:43.557Z,36.70
2019-03-13T02:06:55.338Z,36.60
2019-03-13T02:07:07.150Z,36.70
2019-03-13T02:07:18.871Z,36.70
2019-03-13T02:07:30.610Z,36.70
2019-03-13T02:07:42.348Z,36.80
2019-03-13T02:07:54.119Z,36.80
2019-03-13T02:08:05.995Z,36.80
2019-03-13T02:08:17.734Z,36.80
2019-03-13T02:08:29.472Z,36.80
2019-03-13T02:08:41.216Z,36.80
2019-03-13T02:08:53.069Z,36.80
2019-03-13T02:09:04.865Z,36.80
2019-03-13T02:09:18.937Z,37.50
2019-03-13T02:09:30.676Z,36.80
2019-03-13T02:09:42.423Z,36.70
2019-03-13T02:09:54.163Z,36.70
2019-03-13T02:10:05.903Z,37.50
2019-03-13T02:10:17.865Z,36.70
2019-03-13T02:10:29.626Z,36.70
2019-03-13T02:10:43.701Z,36.80
2019-03-13T02:10:55.440Z,36.80
2019-03-13T02:11:07.519Z,36.80
2019-03-13T02:11:19.328Z,36.90
2019-03-13T02:11:31.070Z,36.80
2019-03-13T02:11:42.823Z,36.80
2019-03-13T02:11:54.562Z,36.90
2019-03-13T02:12:06.501Z,36.80
2019-03-13T02:12:18.243Z,36.80
2019-03-13T02:12:30.028Z,37.50
2019-03-13T02:12:41.911Z,36.90
2019-03-13T02:12:53.815Z,36.80
2019-03-13T02:13:05.562Z,36.80
2019-03-13T02:13:17.324Z,36.80
2019-03-13T02:13:29.065Z,36.70
2019-03-13T02:13:40.802Z,36.70
2019-03-13T02:13:52.543Z,36.80
2019-03-13T02:14:04.291Z,36.80
2019-03-13T02:14:16.087Z,36.80
2019-03-13T02:14:27.847Z,36.70
2019-03-13T02:14:39.589Z,36.70
2019-03-13T02:14:51.326Z,36.70
2019-03-13T02:15:03.203Z,36.70
2019-03-13T02:15:15.053Z,36.80
2019-03-13T02:15:26.791Z,36.80
2019-03-13T02:15:38.526Z,36.90
2019-03-13T02:15:50.265Z,36.90
2019-03-13T02:16:02.030Z,36.80
2019-03-13T02:16:16.101Z,36.70
2019-03-13T02:16:27.838Z,36.70
2019-03-13T02:16:39.579Z,36.70
2019-03-13T02:16:51.318Z,36.80
2019-03-13T02:17:03.267Z,36.70
2019-03-13T02:17:15.002Z,36.80
2019-03-13T02:17:26.745Z,36.30
2019-03-13T02:17:38.485Z,36.80
2019-03-13T02:17:50.223Z,36.90
2019-03-13T02:18:01.963Z,36.90
2019-03-13T02:18:13.703Z,36.90
2019-03-13T02:18:25.437Z,36.90
2019-03-13T02:18:37.224Z,36.80
2019-03-13T02:18:48.965Z,36.80
2019-03-13T02:19:00.705Z,36.80
2019-03-13T02:19:12.455Z,36.90
2019-03-13T02:19:24.197Z,36.90
2019-03-13T02:19:35.932Z,36.90
2019-03-13T02:19:49.883Z,37.00
2019-03-13T02:19:59.414Z,37.00
2019-03-13T02:20:11.152Z,37.00
2019-03-13T02:20:22.890Z,37.00
2019-03-13T02:20:34.628Z,37.00
2019-03-13T02:20:46.368Z,37.00
2019-03-13T02:20:58.121Z,37.10
2019-03-13T02:21:09.870Z,37.00
2019-03-13T02:21:21.605Z,37.00
2019-03-13T02:21:33.344Z,37.00
2019-03-13T02:21:45.121Z,37.00
2019-03-13T02:21:56.857Z,37.00
2019-03-13T02:22:08.721Z,36.90
2019-03-13T02:22:20.460Z,37.00
2019-03-13T02:22:32.199Z,37.60
2019-03-13T02:22:43.936Z,36.90
2019-03-13T02:22:55.675Z,36.90
2019-03-13T02:23:07.412Z,36.90
2019-03-13T02:23:19.281Z,36.90
2019-03-13T02:23:31.018Z,37.00
2019-03-13T02:23:42.936Z,37.00
2019-03-13T02:23:54.674Z,36.80
2019-03-13T02:24:06.424Z,36.30
2019-03-13T02:24:18.162Z,36.80
2019-03-13T02:24:29.900Z,36.70
2019-03-13T02:24:41.639Z,36.80
2019-03-13T02:24:54.350Z,36.70
2019-03-13T02:25:07.456Z,36.90
2019-03-13T02:25:19.193Z,36.80
2019-03-13T02:25:30.932Z,36.80
2019-03-13T02:25:42.727Z,36.70
2019-03-13T02:25:54.464Z,36.80
2019-03-13T02:26:06.202Z,36.70
2019-03-13T02:26:20.428Z,36.70
2019-03-13T02:26:34.502Z,36.70
2019-03-13T02:26:46.238Z,36.60
2019-03-13T02:26:57.980Z,36.60
2019-03-13T02:27:09.717Z,36.70
2019-03-13T02:27:21.554Z,36.70
2019-03-13T02:27:33.372Z,36.70
2019-03-13T02:27:45.112Z,37.00
2019-03-13T02:28:24.821Z,36.80
2019-03-13T02:28:36.561Z,36.90
2019-03-13T02:28:48.324Z,36.90
2019-03-13T02:29:00.172Z,36.90
2019-03-13T02:29:11.922Z,36.90
2019-03-13T02:29:23.817Z,37.10
2019-03-13T02:29:35.554Z,36.90
2019-03-13T02:29:47.318Z,36.90
2019-03-13T02:29:59.057Z,36.90
2019-03-13T02:30:13.131Z,36.60
2019-03-13T02:30:24.922Z,36.60
2019-03-13T02:30:36.725Z,36.60
2019-03-13T02:30:48.618Z,36.60
2019-03-13T02:31:00.353Z,36.70
2019-03-13T02:31:12.126Z,36.80
2019-03-13T02:31:23.933Z,36.80
2019-03-13T02:31:35.724Z,36.90
2019-03-13T02:31:49.824Z,36.80
2019-03-13T02:32:01.569Z,36.60
2019-03-13T02:32:13.337Z,36.50
2019-03-13T02:32:25.126Z,36.50
2019-03-13T02:32:36.880Z,36.50
2019-03-13T02:32:48.619Z,36.60
2019-03-13T02:33:00.354Z,36.80
2019-03-13T02:33:58.748Z,37.00
2019-03-13T02:34:10.520Z,37.00